Time;durP1;ratioP1;P1;durP2;ratioP2;P2;SDS_P1;SDS_P2;PMS_P1;PMS_P2;Temp;Humidity;BMP_temperature;BMP_pressure;BME280_temperature;BME280_humidity;BME280_pressure;Samples;Min_cycle;Max_cycle;Signal;HPM_P1;HPM_P2
2023/10/22 00:02:24;;;;;;;11.32;7.90;;;9.50;99.90;;;;;;5001273;28;20028;-66
2023/10/22 00:04:49;;;;;;;11.10;8.60;;;9.60;99.90;;;;;;5002074;28;20018;-65
2023/10/22 00:07:15;;;;;;;9.95;7.57;;;9.50;99.90;;;;;;5003498;28;20737;-66
2023/10/22 00:09:41;;;;;;;15.68;9.40;;;9.70;99.90;;;;;;4999680;28;20037;-66
2023/10/22 00:12:07;;;;;;;9.35;8.13;;;9.80;99.90;;;;;;5005714;28;20481;-66
2023/10/22 00:14:32;;;;;;;9.40;7.75;;;9.90;99.90;;;;;;4998576;28;20036;-66
2023/10/22 00:16:58;;;;;;;11.05;8.73;;;10.10;99.90;;;;;;5001961;28;20553;-66
2023/10/22 00:19:24;;;;;;;8.13;6.68;;;10.20;99.90;;;;;;5007683;28;20033;-66
2023/10/22 00:21:49;;;;;;;9.45;7.00;;;10.20;99.90;;;;;;5001634;28;20394;-65
2023/10/22 00:24:15;;;;;;;7.90;7.03;;;10.30;99.90;;;;;;5007625;28;20509;-63
2023/10/22 00:26:40;;;;;;;9.77;6.80;;;10.30;99.90;;;;;;5005359;28;20087;-68
2023/10/22 00:29:06;;;;;;;8.20;6.35;;;10.30;99.90;;;;;;5008461;28;20037;-68
2023/10/22 00:31:32;;;;;;;8.30;6.40;;;10.30;99.90;;;;;;5005678;28;20030;-68
2023/10/22 00:33:57;;;;;;;6.88;5.72;;;10.30;99.90;;;;;;5008048;28;20453;-68
2023/10/22 00:36:24;;;;;;;8.27;5.95;;;10.30;99.90;;;;;;4993267;28;20493;-67
2023/10/22 00:38:50;;;;;;;11.75;7.45;;;10.30;99.90;;;;;;5001169;28;20497;-68
2023/10/22 00:41:16;;;;;;;9.75;5.88;;;10.30;99.90;;;;;;5004557;28;20052;-68
2023/10/22 00:43:42;;;;;;;7.38;5.35;;;10.30;99.90;;;;;;5006468;28;20022;-69
2023/10/22 00:46:15;;;;;;;8.07;5.65;;;10.20;99.90;;;;;;4999901;28;20112;-68
2023/10/22 00:48:41;;;;;;;6.95;5.75;;;10.30;99.90;;;;;;5007723;28;20034;-68
2023/10/22 00:51:06;;;;;;;10.18;5.13;;;10.30;99.90;;;;;;5015706;28;20033;-68
2023/10/22 00:53:32;;;;;;;7.28;5.00;;;10.20;99.90;;;;;;5008811;28;20034;-68
2023/10/22 00:55:57;;;;;;;7.00;4.75;;;10.20;99.90;;;;;;5012082;28;20034;-68
2023/10/22 00:58:24;;;;;;;7.50;5.25;;;10.20;99.90;;;;;;5010455;28;20029;-68
2023/10/22 01:00:49;;;;;;;5.20;4.40;;;10.20;99.90;;;;;;5010240;28;20037;-69
2023/10/22 01:03:16;;;;;;;5.38;4.47;;;10.20;99.90;;;;;;5013102;28;20429;-68
2023/10/22 01:05:41;;;;;;;6.50;4.45;;;10.20;99.90;;;;;;5014651;28;20026;-68
2023/10/22 01:08:08;;;;;;;6.50;3.97;;;10.20;99.90;;;;;;5009960;28;20045;-69
2023/10/22 01:10:34;;;;;;;6.85;4.68;;;10.20;99.90;;;;;;5013897;28;20597;-68
2023/10/22 01:13:00;;;;;;;7.03;5.60;;;10.20;99.90;;;;;;5012392;28;20041;-68
2023/10/22 01:15:26;;;;;;;7.82;4.75;;;10.30;99.90;;;;;;5014777;28;20025;-68
2023/10/22 01:17:52;;;;;;;6.10;4.80;;;10.30;99.90;;;;;;5008345;28;20588;-68
2023/10/22 01:20:18;;;;;;;8.75;4.50;;;10.30;99.90;;;;;;5007844;28;20057;-69
2023/10/22 01:22:43;;;;;;;8.48;5.35;;;10.30;99.90;;;;;;5011787;28;20026;-69
2023/10/22 01:25:09;;;;;;;5.85;4.85;;;10.30;99.90;;;;;;5011248;28;20424;-68
2023/10/22 01:27:35;;;;;;;7.20;4.57;;;10.30;99.90;;;;;;5009860;28;20026;-68
2023/10/22 01:30:01;;;;;;;5.32;4.35;;;10.30;99.90;;;;;;5008822;28;20025;-66
2023/10/22 01:32:30;;;;;;;5.97;4.68;;;10.30;99.90;;;;;;5012550;28;20041;-68
2023/10/22 01:34:57;;;;;;;5.90;4.25;;;10.30;99.90;;;;;;5006524;28;20524;-68
2023/10/22 01:37:23;;;;;;;6.57;4.68;;;10.30;99.90;;;;;;4999234;28;20030;-68
2023/10/22 01:39:49;;;;;;;5.65;4.47;;;10.30;99.90;;;;;;5004143;28;20022;-68
2023/10/22 01:42:14;;;;;;;5.55;4.53;;;10.20;99.90;;;;;;5011086;28;20060;-68
2023/10/22 01:44:40;;;;;;;5.40;3.97;;;10.30;99.90;;;;;;5010275;28;20041;-68
2023/10/22 01:47:05;;;;;;;7.05;4.78;;;10.30;99.90;;;;;;5005518;28;20060;-66
2023/10/22 01:49:32;;;;;;;6.85;4.75;;;10.30;99.90;;;;;;5007506;28;20061;-65
2023/10/22 01:51:57;;;;;;;10.15;3.95;;;10.30;99.90;;;;;;5004559;28;20037;-65
2023/10/22 01:54:23;;;;;;;5.35;4.25;;;10.30;99.90;;;;;;5003630;28;20034;-66
2023/10/22 01:56:49;;;;;;;4.88;3.78;;;10.30;99.90;;;;;;5010457;28;20030;-66
2023/10/22 01:59:14;;;;;;;5.55;4.53;;;10.30;99.90;;;;;;5007551;28;20059;-65
2023/10/22 02:01:42;;;;;;;6.93;4.60;;;10.30;99.90;;;;;;5007620;28;20034;-66
2023/10/22 02:04:08;;;;;;;8.07;5.65;;;10.30;99.90;;;;;;5011882;28;20501;-65
2023/10/22 02:06:33;;;;;;;7.85;6.15;;;10.30;99.90;;;;;;5002370;28;20029;-65
2023/10/22 02:09:00;;;;;;;8.20;6.43;;;10.30;99.90;;;;;;5004312;28;20388;-66
2023/10/22 02:11:26;;;;;;;8.23;6.25;;;10.40;99.90;;;;;;5010790;28;20022;-66
2023/10/22 02:13:52;;;;;;;12.07;6.47;;;10.40;99.90;;;;;;5011202;28;20026;-64
2023/10/22 02:16:18;;;;;;;10.75;6.70;;;10.40;99.90;;;;;;5002723;28;20436;-66
2023/10/22 02:18:44;;;;;;;7.95;5.50;;;10.50;99.90;;;;;;5006137;28;20565;-66
2023/10/22 02:21:10;;;;;;;8.05;6.43;;;10.50;99.90;;;;;;5008791;28;20137;-65
2023/10/22 02:23:35;;;;;;;7.10;5.57;;;10.40;99.90;;;;;;5010202;28;20029;-64
2023/10/22 02:26:01;;;;;;;9.60;5.85;;;10.40;99.90;;;;;;5008272;28;20028;-65
2023/10/22 02:28:26;;;;;;;8.13;5.95;;;10.40;99.90;;;;;;4998137;28;20034;-65
2023/10/22 02:30:52;;;;;;;9.75;6.72;;;10.40;99.90;;;;;;5002477;28;20021;-65
2023/10/22 02:33:17;;;;;;;8.13;5.50;;;10.50;99.90;;;;;;5007779;28;20116;-64
2023/10/22 02:35:44;;;;;;;6.40;5.78;;;10.50;99.90;;;;;;5005606;28;20037;-64
2023/10/22 02:38:14;;;;;;;7.28;5.30;;;10.50;99.90;;;;;;5004967;28;20065;-65
2023/10/22 02:40:40;;;;;;;6.55;5.22;;;10.50;99.90;;;;;;5004163;28;20375;-65
2023/10/22 02:43:06;;;;;;;5.50;4.72;;;10.50;99.90;;;;;;5010511;28;20040;-65
2023/10/22 02:45:31;;;;;;;8.52;5.70;;;10.50;99.90;;;;;;5004114;28;20029;-66
2023/10/22 02:47:58;;;;;;;10.07;5.03;;;10.50;99.90;;;;;;5009130;28;20034;-65
2023/10/22 02:50:24;;;;;;;8.38;4.85;;;10.50;99.90;;;;;;5011879;28;20022;-65
2023/10/22 02:52:50;;;;;;;8.60;5.82;;;10.50;99.90;;;;;;5005703;28;20022;-65
2023/10/22 02:55:16;;;;;;;5.55;4.88;;;10.50;99.90;;;;;;5008188;28;20026;-64
2023/10/22 02:57:41;;;;;;;6.82;5.40;;;10.50;99.90;;;;;;5011711;28;20124;-65
2023/10/22 03:00:10;;;;;;;7.13;5.22;;;10.60;99.90;;;;;;5011784;28;20101;-65
2023/10/22 03:02:40;;;;;;;5.78;4.78;;;10.50;99.90;;;;;;5001465;28;20050;-65
2023/10/22 03:05:06;;;;;;;7.50;4.68;;;10.50;99.90;;;;;;5006599;28;20564;-65
2023/10/22 03:07:32;;;;;;;6.43;4.40;;;10.50;99.90;;;;;;4998730;28;20033;-64
2023/10/22 03:09:58;;;;;;;5.30;4.53;;;10.50;99.90;;;;;;5006442;28;20455;-64
2023/10/22 03:12:23;;;;;;;6.07;5.00;;;10.50;99.90;;;;;;5013459;28;20088;-64
2023/10/22 03:14:52;;;;;;;5.82;4.40;;;10.50;99.90;;;;;;5010613;28;20026;-66
2023/10/22 03:17:18;;;;;;;7.53;5.03;;;10.50;99.90;;;;;;4997990;28;20026;-65
2023/10/22 03:19:44;;;;;;;7.55;4.43;;;10.50;99.90;;;;;;5010130;28;20161;-65
2023/10/22 03:22:10;;;;;;;7.88;4.45;;;10.50;99.90;;;;;;5005847;28;20629;-65
2023/10/22 03:24:36;;;;;;;6.55;4.93;;;10.50;99.90;;;;;;5005513;28;20025;-65
2023/10/22 03:27:04;;;;;;;8.07;5.18;;;10.50;99.90;;;;;;5006345;28;20101;-65
2023/10/22 03:29:29;;;;;;;5.85;5.18;;;10.50;99.90;;;;;;5012389;28;20025;-65
2023/10/22 03:31:55;;;;;;;5.60;4.30;;;10.50;99.90;;;;;;5005387;28;20589;-65
2023/10/22 03:34:21;;;;;;;9.32;5.13;;;10.50;99.90;;;;;;4998683;28;20049;-65
2023/10/22 03:36:46;;;;;;;7.70;4.97;;;10.50;99.90;;;;;;5000451;28;20038;-65
2023/10/22 03:39:13;;;;;;;5.70;4.88;;;10.60;99.90;;;;;;5009324;28;20106;-65
2023/10/22 03:41:39;;;;;;;5.85;4.93;;;10.60;99.90;;;;;;5005275;28;20021;-64
2023/10/22 03:44:05;;;;;;;5.13;4.53;;;10.60;99.90;;;;;;5011681;28;20038;-64
2023/10/22 03:46:30;;;;;;;5.43;4.85;;;10.60;99.90;;;;;;5006736;28;20650;-65
2023/10/22 03:48:57;;;;;;;5.88;4.55;;;10.60;99.90;;;;;;5010241;28;20034;-64
2023/10/22 03:51:22;;;;;;;6.88;4.45;;;10.60;99.90;;;;;;5010200;28;20209;-66
2023/10/22 03:53:49;;;;;;;6.82;5.50;;;10.70;99.90;;;;;;5018445;28;20098;-66
2023/10/22 03:56:14;;;;;;;7.40;5.40;;;10.70;99.90;;;;;;5008040;28;20032;-65
2023/10/22 03:58:40;;;;;;;8.13;5.60;;;10.70;99.90;;;;;;5016230;28;20125;-66
2023/10/22 04:01:06;;;;;;;5.53;4.35;;;10.70;99.90;;;;;;5007133;28;20113;-66
2023/10/22 04:03:31;;;;;;;7.68;4.57;;;10.70;99.90;;;;;;5013681;28;20025;-65
2023/10/22 04:05:57;;;;;;;6.57;4.35;;;10.70;99.90;;;;;;5009838;28;20121;-65
2023/10/22 04:08:28;;;;;;;5.90;4.88;;;10.70;99.90;;;;;;5011658;28;20022;-65
2023/10/22 04:10:53;;;;;;;6.35;4.57;;;10.70;99.90;;;;;;5014570;28;20505;-65
2023/10/22 04:13:19;;;;;;;6.65;5.00;;;10.70;99.90;;;;;;5017144;28;20033;-66
2023/10/22 04:15:45;;;;;;;5.68;4.38;;;10.70;99.90;;;;;;5008492;28;20026;-65
2023/10/22 04:18:13;;;;;;;7.63;5.60;;;10.70;99.90;;;;;;5010918;28;20056;-65
2023/10/22 04:20:38;;;;;;;5.43;4.22;;;10.70;99.90;;;;;;5009388;28;20052;-65
2023/10/22 04:23:04;;;;;;;7.03;5.03;;;10.70;99.90;;;;;;5011991;28;20037;-65
2023/10/22 04:25:38;;;;;;;7.13;4.25;;;10.70;99.90;;;;;;5012877;28;20107;-66
2023/10/22 04:28:04;;;;;;;4.88;3.88;;;10.70;99.90;;;;;;5008433;28;20025;-65
2023/10/22 04:30:29;;;;;;;6.47;4.20;;;10.80;99.90;;;;;;5010717;28;20048;-65
2023/10/22 04:32:55;;;;;;;7.43;4.88;;;10.70;99.90;;;;;;5009032;28;20026;-65
2023/10/22 04:35:20;;;;;;;5.97;4.68;;;10.80;99.90;;;;;;5012269;28;20133;-66
2023/10/22 04:37:46;;;;;;;6.15;4.85;;;10.80;99.90;;;;;;5001929;28;20490;-65
2023/10/22 04:40:11;;;;;;;6.40;4.85;;;10.80;99.90;;;;;;5013875;28;20072;-65
2023/10/22 04:42:37;;;;;;;6.43;3.90;;;10.80;99.90;;;;;;5013834;28;20897;-64
2023/10/22 04:45:03;;;;;;;6.47;5.57;;;10.80;99.90;;;;;;5011410;28;20029;-66
2023/10/22 04:47:28;;;;;;;7.95;5.10;;;10.90;99.90;;;;;;5009364;28;20029;-66
2023/10/22 04:49:54;;;;;;;5.65;4.15;;;11.00;99.90;;;;;;5009173;28;20426;-66
2023/10/22 04:52:30;;;;;;;5.13;4.43;;;11.00;99.90;;;;;;5010490;28;20029;-65
2023/10/22 04:54:56;;;;;;;4.97;4.18;;;11.00;99.90;;;;;;5013634;28;20029;-66
2023/10/22 04:57:21;;;;;;;5.78;4.10;;;11.00;99.90;;;;;;5002393;28;20477;-65
2023/10/22 04:59:47;;;;;;;6.32;4.70;;;11.00;99.90;;;;;;5013375;28;20055;-65
2023/10/22 05:02:12;;;;;;;4.88;4.25;;;11.00;99.90;;;;;;5004889;28;20029;-65
2023/10/22 05:04:38;;;;;;;6.80;4.25;;;11.00;99.90;;;;;;5016790;28;20032;-66
2023/10/22 05:07:03;;;;;;;4.95;3.65;;;11.00;99.90;;;;;;5007070;28;20034;-66
2023/10/22 05:09:29;;;;;;;6.07;3.55;;;11.00;99.90;;;;;;5011833;28;20767;-65
2023/10/22 05:11:55;;;;;;;8.57;5.70;;;11.10;99.90;;;;;;5011057;28;20405;-65
2023/10/22 05:14:20;;;;;;;7.32;4.95;;;11.10;99.90;;;;;;5011182;28;20061;-65
2023/10/22 05:16:47;;;;;;;4.78;4.13;;;11.10;99.90;;;;;;5007481;28;20022;-65
2023/10/22 05:19:13;;;;;;;5.47;4.00;;;11.00;99.90;;;;;;5006087;28;20077;-65
2023/10/22 05:21:38;;;;;;;4.65;4.25;;;11.10;99.90;;;;;;5014207;28;20497;-65
2023/10/22 05:24:04;;;;;;;7.07;4.88;;;11.00;99.90;;;;;;5005306;28;20058;-65
2023/10/22 05:26:29;;;;;;;9.48;5.18;;;11.00;99.90;;;;;;5005425;28;20385;-66
2023/10/22 05:28:55;;;;;;;8.15;4.82;;;11.00;99.90;;;;;;5006437;28;20022;-65
2023/10/22 05:31:22;;;;;;;6.32;4.28;;;11.10;99.90;;;;;;5006573;28;20068;-65
2023/10/22 05:33:47;;;;;;;6.13;3.88;;;11.00;99.90;;;;;;5001122;28;20030;-64
2023/10/22 05:36:20;;;;;;;5.63;4.45;;;11.10;99.90;;;;;;4999605;28;20052;-63
2023/10/22 05:38:46;;;;;;;4.78;3.88;;;11.10;99.90;;;;;;5007614;28;20030;-66
2023/10/22 05:41:18;;;;;;;4.72;4.05;;;11.10;99.90;;;;;;5012669;28;20030;-64
2023/10/22 05:43:43;;;;;;;6.90;4.30;;;11.10;99.90;;;;;;5004076;28;20030;-64
2023/10/22 05:46:09;;;;;;;6.07;3.90;;;11.10;99.90;;;;;;5003353;28;20029;-65
2023/10/22 05:48:34;;;;;;;4.90;4.13;;;11.10;99.90;;;;;;5002898;28;20057;-66
2023/10/22 05:51:00;;;;;;;5.40;3.72;;;11.10;99.90;;;;;;5003897;28;20498;-66
2023/10/22 05:53:26;;;;;;;4.10;3.70;;;11.10;99.90;;;;;;5006795;28;20087;-64
2023/10/22 05:55:57;;;;;;;5.85;4.50;;;11.10;99.90;;;;;;5007535;28;20044;-67
2023/10/22 05:58:23;;;;;;;5.05;3.78;;;11.10;99.90;;;;;;5002857;28;20044;-66
2023/10/22 06:00:49;;;;;;;4.43;3.55;;;11.10;99.90;;;;;;5002540;28;20030;-66
2023/10/22 06:03:14;;;;;;;5.75;4.43;;;11.10;99.90;;;;;;5008131;28;20330;-66
2023/10/22 06:05:40;;;;;;;7.22;4.47;;;11.10;99.90;;;;;;5007022;28;20034;-68
2023/10/22 06:08:05;;;;;;;5.13;4.35;;;11.10;99.90;;;;;;5003822;28;20387;-67
2023/10/22 06:10:31;;;;;;;4.95;3.38;;;11.10;99.90;;;;;;5005498;28;20030;-66
2023/10/22 06:12:57;;;;;;;4.57;3.90;;;11.10;99.90;;;;;;5008026;28;20029;-67
2023/10/22 06:15:22;;;;;;;4.45;3.78;;;11.10;99.90;;;;;;5003587;28;20044;-67
2023/10/22 06:17:48;;;;;;;4.75;3.38;;;11.20;99.90;;;;;;5010765;28;20056;-66
2023/10/22 06:20:13;;;;;;;4.35;3.30;;;11.20;99.90;;;;;;5001322;28;20076;-67
2023/10/22 06:22:38;;;;;;;3.53;2.97;;;11.30;99.90;;;;;;5003439;28;20068;-66
2023/10/22 06:25:04;;;;;;;4.95;3.47;;;11.30;99.90;;;;;;5006370;28;20041;-66
2023/10/22 06:27:30;;;;;;;6.25;3.53;;;11.30;99.90;;;;;;5007682;28;20021;-63
2023/10/22 06:29:55;;;;;;;5.70;3.78;;;11.40;99.90;;;;;;5009596;28;20277;-65
2023/10/22 06:32:21;;;;;;;5.50;3.78;;;11.40;99.90;;;;;;5009646;28;20028;-68
2023/10/22 06:34:47;;;;;;;6.43;3.47;;;11.40;99.90;;;;;;5000699;28;20029;-69
2023/10/22 06:37:12;;;;;;;4.53;3.85;;;11.40;99.90;;;;;;5000407;28;20045;-70
2023/10/22 06:39:39;;;;;;;5.15;3.60;;;11.50;99.90;;;;;;5005282;28;20059;-69
2023/10/22 06:42:04;;;;;;;3.63;2.78;;;11.50;99.90;;;;;;5000845;28;20022;-69
2023/10/22 06:44:30;;;;;;;6.40;2.70;;;11.60;99.90;;;;;;5007289;28;20041;-67
2023/10/22 06:46:55;;;;;;;3.35;2.63;;;11.60;99.90;;;;;;5000587;28;20485;-69
2023/10/22 06:49:21;;;;;;;3.10;2.30;;;11.60;99.90;;;;;;5002530;28;20033;-69
2023/10/22 06:51:46;;;;;;;5.18;2.42;;;11.70;99.90;;;;;;5008196;28;20486;-68
2023/10/22 06:54:11;;;;;;;2.90;2.55;;;11.70;99.90;;;;;;5003489;28;20088;-69
2023/10/22 06:56:37;;;;;;;2.92;2.45;;;11.80;99.90;;;;;;5005312;28;20040;-69
2023/10/22 06:59:03;;;;;;;2.90;2.50;;;11.80;99.90;;;;;;5001216;28;20022;-68
2023/10/22 07:01:29;;;;;;;3.45;2.67;;;11.80;99.90;;;;;;5002398;28;20394;-69
2023/10/22 07:03:55;;;;;;;3.22;2.20;;;11.80;99.90;;;;;;5002836;28;20124;-68
2023/10/22 07:06:21;;;;;;;3.75;2.83;;;11.80;99.90;;;;;;4999832;28;20108;-69
2023/10/22 07:08:46;;;;;;;3.28;2.35;;;11.90;99.90;;;;;;5006642;28;20143;-67
2023/10/22 07:11:12;;;;;;;3.30;2.55;;;11.90;99.90;;;;;;5007128;28;20034;-68
2023/10/22 07:13:37;;;;;;;3.60;2.28;;;11.90;99.90;;;;;;5007221;28;20205;-67
2023/10/22 07:16:03;;;;;;;5.50;2.33;;;12.00;99.90;;;;;;5001375;28;20045;-68
2023/10/22 07:18:29;;;;;;;10.00;2.53;;;12.00;99.90;;;;;;5000327;28;20026;-68
2023/10/22 07:20:54;;;;;;;2.63;2.25;;;12.00;99.90;;;;;;5000396;28;20029;-68
2023/10/22 07:23:19;;;;;;;1.70;1.60;;;12.00;99.90;;;;;;5004510;28;20129;-67
2023/10/22 07:25:45;;;;;;;2.75;2.10;;;12.00;99.90;;;;;;5004693;28;20021;-66
2023/10/22 07:28:12;;;;;;;2.70;2.13;;;12.00;99.90;;;;;;5010558;28;20037;-68
2023/10/22 07:30:37;;;;;;;2.80;1.95;;;12.00;99.90;;;;;;5004154;28;20052;-67
2023/10/22 07:33:03;;;;;;;3.95;2.28;;;12.10;99.90;;;;;;5013568;28;20061;-67
2023/10/22 07:35:28;;;;;;;2.67;2.05;;;12.10;99.90;;;;;;5007603;28;20049;-68
2023/10/22 07:37:54;;;;;;;2.33;1.70;;;12.10;99.90;;;;;;5006256;28;20109;-68
2023/10/22 07:40:20;;;;;;;2.90;2.13;;;12.20;99.90;;;;;;5012397;28;20026;-69
2023/10/22 07:42:48;;;;;;;3.63;2.17;;;12.20;99.90;;;;;;5005633;28;20410;-69
2023/10/22 07:45:14;;;;;;;2.22;2.03;;;12.30;99.90;;;;;;5010137;28;20095;-68
2023/10/22 07:47:39;;;;;;;4.18;2.30;;;12.30;99.90;;;;;;5002752;28;20481;-68
2023/10/22 07:50:06;;;;;;;3.28;2.13;;;12.40;99.90;;;;;;5006112;28;20135;-69
2023/10/22 07:52:32;;;;;;;2.90;2.20;;;12.40;99.90;;;;;;5009166;28;20524;-69
2023/10/22 07:54:57;;;;;;;2.55;2.25;;;12.50;99.90;;;;;;5008443;28;20030;-68
2023/10/22 07:57:25;;;;;;;2.05;1.80;;;12.50;99.90;;;;;;5008037;28;20486;-69
2023/10/22 07:59:50;;;;;;;2.33;1.90;;;12.50;99.90;;;;;;5007690;28;20041;-69
2023/10/22 08:02:15;;;;;;;2.75;2.05;;;12.60;99.90;;;;;;5009193;28;20117;-69
2023/10/22 08:04:41;;;;;;;4.13;2.03;;;12.70;99.90;;;;;;5006261;28;20018;-69
2023/10/22 08:07:07;;;;;;;2.78;2.38;;;12.80;99.90;;;;;;5009166;28;20497;-69
2023/10/22 08:09:32;;;;;;;3.10;2.35;;;12.90;99.90;;;;;;5014123;28;20072;-69
2023/10/22 08:11:58;;;;;;;3.45;2.05;;;13.00;99.90;;;;;;5009326;28;20608;-71
2023/10/22 08:14:24;;;;;;;4.25;1.70;;;13.10;99.90;;;;;;5004538;28;20025;-69
2023/10/22 08:16:50;;;;;;;3.55;2.38;;;13.30;99.90;;;;;;5006463;28;20017;-68
2023/10/22 08:19:15;;;;;;;4.07;3.00;;;13.50;99.90;;;;;;5011384;28;20033;-69
2023/10/22 08:21:41;;;;;;;3.72;3.10;;;13.70;99.90;;;;;;5008484;28;20116;-64
2023/10/22 08:24:07;;;;;;;2.85;2.53;;;14.00;99.90;;;;;;5006198;28;20131;-67
2023/10/22 08:26:32;;;;;;;2.55;2.35;;;14.20;99.90;;;;;;5003555;28;20092;-68
2023/10/22 08:28:58;;;;;;;3.78;2.40;;;14.40;99.90;;;;;;5011610;28;20453;-69
2023/10/22 08:31:23;;;;;;;3.80;3.17;;;14.70;99.90;;;;;;5005900;28;20026;-69
2023/10/22 08:33:49;;;;;;;2.50;2.30;;;14.90;99.90;;;;;;5003060;28;20022;-69
2023/10/22 08:36:15;;;;;;;4.13;1.65;;;15.20;99.90;;;;;;4996691;28;20034;-69
2023/10/22 08:38:41;;;;;;;1.60;1.40;;;15.50;99.90;;;;;;5001703;28;20052;-69
2023/10/22 08:41:23;;;;;;;2.80;1.17;;;15.70;99.90;;;;;;5004193;28;20835;-67
2023/10/22 08:43:49;;;;;;;1.58;1.15;;;16.00;99.90;;;;;;5007950;28;20642;-69
2023/10/22 08:46:15;;;;;;;1.05;1.00;;;16.20;99.90;;;;;;5007918;28;20095;-68
2023/10/22 08:48:41;;;;;;;2.63;0.80;;;16.40;99.90;;;;;;5006234;28;20053;-68
2023/10/22 08:51:08;;;;;;;1.27;0.95;;;16.60;99.90;;;;;;5008351;28;20030;-68
2023/10/22 08:53:34;;;;;;;1.98;1.48;;;16.70;99.90;;;;;;5004764;28;20041;-70
2023/10/22 08:56:01;;;;;;;1.10;1.00;;;16.60;99.90;;;;;;5002575;28;20029;-68
2023/10/22 08:58:27;;;;;;;1.75;1.42;;;16.50;99.90;;;;;;4999356;28;20535;-69
2023/10/22 09:00:53;;;;;;;1.05;0.90;;;16.40;99.90;;;;;;5003601;28;20037;-68
2023/10/22 09:03:20;;;;;;;2.92;1.45;;;16.40;99.90;;;;;;5000960;28;20041;-68
2023/10/22 09:05:46;;;;;;;1.90;1.33;;;16.30;99.90;;;;;;5005548;28;20056;-68
2023/10/22 09:08:12;;;;;;;2.53;1.08;;;16.20;99.90;;;;;;4997687;28;20112;-68
2023/10/22 09:10:38;;;;;;;2.25;1.20;;;16.10;99.90;;;;;;5007503;28;20096;-71
2023/10/22 09:13:06;;;;;;;1.50;1.10;;;16.00;99.90;;;;;;5004338;28;20496;-69
2023/10/22 09:15:43;;;;;;;1.08;0.80;;;16.10;99.90;;;;;;4998901;28;20037;-68
2023/10/22 09:18:08;;;;;;;2.90;1.30;;;16.20;99.90;;;;;;5000253;28;20037;-70
2023/10/22 09:20:34;;;;;;;3.85;1.23;;;16.20;99.90;;;;;;5002935;28;20040;-68
2023/10/22 09:23:23;;;;;;;2.55;1.00;;;16.20;99.90;;;;;;5003059;28;20108;-68
2023/10/22 09:25:50;;;;;;;1.25;1.00;;;16.20;99.90;;;;;;4998584;28;20026;-69
2023/10/22 09:28:27;;;;;;;3.63;1.27;;;16.20;99.90;;;;;;4997162;28;20075;-69
2023/10/22 09:31:01;;;;;;;1.35;1.15;;;16.20;99.90;;;;;;5002604;28;20117;-69
2023/10/22 09:33:34;;;;;;;1.33;1.17;;;16.30;99.90;;;;;;5001120;28;20125;-67
2023/10/22 09:36:04;;;;;;;1.27;1.10;;;16.40;99.90;;;;;;5002559;28;20052;-67
2023/10/22 09:38:46;;;;;;;2.88;1.30;;;16.40;99.90;;;;;;4996591;28;20116;-67
2023/10/22 09:41:29;;;;;;;1.40;1.27;;;16.40;99.90;;;;;;5003484;28;20032;-68
2023/10/22 09:43:59;;;;;;;1.30;1.17;;;16.50;99.90;;;;;;5005887;28;20025;-67
2023/10/22 09:46:30;;;;;;;2.85;1.05;;;16.60;99.90;;;;;;5011783;28;20151;-67
2023/10/22 09:48:59;;;;;;;2.53;1.10;;;16.70;99.90;;;;;;5000211;28;20108;-66
2023/10/22 09:51:29;;;;;;;2.50;1.30;;;16.70;99.90;;;;;;5010501;28;20110;-65
2023/10/22 09:53:56;;;;;;;2.53;0.98;;;16.70;99.90;;;;;;5010559;28;20048;-66
2023/10/22 09:56:23;;;;;;;1.10;1.00;;;16.70;99.90;;;;;;5007142;28;20549;-66
2023/10/22 09:58:53;;;;;;;1.48;1.25;;;16.60;99.90;;;;;;5009826;28;20049;-66
2023/10/22 10:01:21;;;;;;;2.05;1.15;;;16.50;99.90;;;;;;5009774;28;20029;-66
2023/10/22 10:03:47;;;;;;;2.13;1.13;;;16.50;99.90;;;;;;5010214;28;20044;-66
2023/10/22 10:06:14;;;;;;;1.58;1.20;;;16.40;99.90;;;;;;5008995;28;20026;-66
2023/10/22 10:08:40;;;;;;;3.13;1.13;;;16.40;99.90;;;;;;5005984;28;20032;-66
2023/10/22 10:11:08;;;;;;;5.50;1.52;;;16.20;99.90;;;;;;5011370;28;20104;-66
2023/10/22 10:13:35;;;;;;;1.85;1.25;;;16.30;99.90;;;;;;5015760;28;20032;-66
2023/10/22 10:16:03;;;;;;;1.90;1.23;;;16.20;99.90;;;;;;5015215;28;20030;-66
2023/10/22 10:19:08;;;;;;;3.80;1.60;;;16.30;99.90;;;;;;5014188;28;20037;-66
2023/10/22 10:21:34;;;;;;;2.35;1.23;;;16.30;99.90;;;;;;5012055;28;20057;-66
2023/10/22 10:24:17;;;;;;;2.53;1.75;;;16.30;99.90;;;;;;5010328;28;20124;-66
2023/10/22 10:26:44;;;;;;;2.17;1.77;;;16.20;99.90;;;;;;5007856;28;20072;-66
2023/10/22 10:29:23;;;;;;;2.10;1.40;;;16.20;99.90;;;;;;5007752;28;20057;-66
2023/10/22 10:31:52;;;;;;;3.17;1.60;;;16.20;99.90;;;;;;5012559;28;20029;-66
2023/10/22 10:34:34;;;;;;;1.98;1.25;;;16.20;99.90;;;;;;5014269;28;20037;-66
2023/10/22 10:37:09;;;;;;;2.88;1.60;;;16.30;99.90;;;;;;5004243;28;20602;-67
2023/10/22 10:39:43;;;;;;;2.22;1.73;;;16.30;99.90;;;;;;5010202;28;20616;-66
2023/10/22 10:42:09;;;;;;;4.03;1.10;;;16.30;99.90;;;;;;5014418;28;20113;-66
2023/10/22 10:45:02;;;;;;;2.67;1.70;;;16.40;99.90;;;;;;5011672;28;20547;-66
2023/10/22 10:47:39;;;;;;;3.67;1.90;;;16.40;99.90;;;;;;5008229;28;20022;-66
2023/10/22 10:50:10;;;;;;;2.88;1.45;;;16.40;99.90;;;;;;5005435;28;20026;-66
2023/10/22 10:52:41;;;;;;;1.58;1.30;;;16.40;99.90;;;;;;5015027;28;20018;-66
2023/10/22 10:55:20;;;;;;;2.78;1.40;;;16.50;99.90;;;;;;5012725;28;20042;-67
2023/10/22 10:57:53;;;;;;;1.70;1.30;;;16.50;99.90;;;;;;5011028;28;20049;-66
2023/10/22 11:00:27;;;;;;;3.15;1.40;;;16.50;99.90;;;;;;5013022;28;20745;-66
2023/10/22 11:02:53;;;;;;;3.08;1.27;;;16.50;99.90;;;;;;5014842;28;20025;-67
2023/10/22 11:05:47;;;;;;;2.40;1.75;;;16.50;99.90;;;;;;5009329;28;20494;-66
2023/10/22 11:08:18;;;;;;;4.13;1.50;;;16.40;99.90;;;;;;5008495;28;20029;-66
2023/10/22 11:10:45;;;;;;;1.95;1.50;;;16.40;99.90;;;;;;5006499;28;20041;-65
2023/10/22 11:13:10;;;;;;;3.45;1.60;;;16.40;99.90;;;;;;5014768;28;20022;-66
2023/10/22 11:15:37;;;;;;;2.22;1.40;;;16.30;99.90;;;;;;5011774;28;20083;-66
2023/10/22 11:18:10;;;;;;;3.22;1.50;;;16.30;99.90;;;;;;5013449;28;20029;-66
2023/10/22 11:20:36;;;;;;;2.17;1.38;;;16.20;99.90;;;;;;5008995;28;20060;-66
2023/10/22 11:23:02;;;;;;;3.03;1.27;;;16.20;99.90;;;;;;5005435;28;20053;-66
2023/10/22 11:25:29;;;;;;;7.00;1.38;;;16.10;99.90;;;;;;5014117;28;20104;-66
2023/10/22 11:27:54;;;;;;;2.20;1.10;;;16.10;99.90;;;;;;5011238;28;20041;-66
2023/10/22 11:30:33;;;;;;;1.40;1.08;;;16.20;99.90;;;;;;5013707;28;20505;-65
2023/10/22 11:32:59;;;;;;;3.13;1.27;;;16.20;99.90;;;;;;5014354;28;20037;-66
2023/10/22 11:35:30;;;;;;;2.42;1.30;;;16.20;99.90;;;;;;5010563;28;20568;-66
2023/10/22 11:37:57;;;;;;;1.90;0.80;;;16.20;99.90;;;;;;5010928;28;20040;-66
2023/10/22 11:40:28;;;;;;;4.88;2.55;;;16.10;99.90;;;;;;5011921;28;20044;-66
2023/10/22 11:42:56;;;;;;;3.72;2.10;;;16.10;99.90;;;;;;5011463;28;20096;-66
2023/10/22 11:45:21;;;;;;;2.42;1.55;;;16.10;99.90;;;;;;5012258;28;20130;-65
2023/10/22 11:47:47;;;;;;;3.35;1.42;;;16.10;99.90;;;;;;5015133;28;20101;-65
2023/10/22 11:50:15;;;;;;;4.25;1.50;;;16.10;99.90;;;;;;5016627;28;20068;-66
2023/10/22 11:52:50;;;;;;;2.42;1.30;;;16.10;99.90;;;;;;5011652;28;20081;-66
2023/10/22 11:55:16;;;;;;;3.50;1.10;;;16.10;99.90;;;;;;5003327;28;20034;-66
2023/10/22 11:57:43;;;;;;;5.15;1.30;;;16.10;99.90;;;;;;5008878;28;20280;-66
2023/10/22 12:00:12;;;;;;;2.03;1.25;;;16.00;99.90;;;;;;5018880;28;20044;-67
2023/10/22 12:02:42;;;;;;;2.90;1.15;;;16.10;99.90;;;;;;5010564;28;20085;-67
2023/10/22 12:05:09;;;;;;;1.95;1.30;;;16.10;99.90;;;;;;5012496;28;20040;-67
2023/10/22 12:07:34;;;;;;;5.30;2.33;;;16.10;99.90;;;;;;5014981;28;20041;-66
2023/10/22 12:10:00;;;;;;;2.45;1.58;;;16.10;99.90;;;;;;5014222;28;20034;-66
2023/10/22 12:12:26;;;;;;;3.28;1.80;;;16.00;99.90;;;;;;5018631;28;20449;-66
2023/10/22 12:14:51;;;;;;;2.42;1.30;;;16.00;99.90;;;;;;5018522;28;20079;-67
2023/10/22 12:17:17;;;;;;;1.98;1.25;;;16.00;99.90;;;;;;5015456;28;20108;-67
2023/10/22 12:19:43;;;;;;;3.28;1.42;;;16.00;99.90;;;;;;5014603;28;20045;-67
2023/10/22 12:22:08;;;;;;;2.85;1.23;;;15.90;99.90;;;;;;5016547;28;20026;-67
2023/10/22 12:24:34;;;;;;;4.80;1.92;;;15.90;99.90;;;;;;5013762;28;20026;-67
2023/10/22 12:26:59;;;;;;;3.70;1.60;;;15.90;99.90;;;;;;5016533;28;20489;-67
2023/10/22 12:29:25;;;;;;;2.97;1.55;;;16.00;99.90;;;;;;4999326;28;20717;-67
2023/10/22 12:31:51;;;;;;;3.72;1.63;;;16.10;99.90;;;;;;5002115;28;20029;-74
2023/10/22 12:34:18;;;;;;;4.85;1.77;;;16.10;99.90;;;;;;5012569;28;20037;-74
2023/10/22 12:36:43;;;;;;;6.93;1.75;;;16.10;99.90;;;;;;5002353;28;20073;-65
2023/10/22 12:39:09;;;;;;;2.78;1.55;;;16.20;99.90;;;;;;5014091;28;20084;-65
2023/10/22 12:41:34;;;;;;;4.55;1.30;;;16.20;99.90;;;;;;5018109;28;20080;-65
2023/10/22 12:44:00;;;;;;;9.35;2.08;;;16.30;99.90;;;;;;5015451;28;20104;-65
2023/10/22 12:46:26;;;;;;;5.72;2.08;;;16.30;99.90;;;;;;5015279;28;20083;-65